createdAt,value
2022-09-23T00:00:01.886Z,9.1
2022-09-23T00:01:01.203Z,9.1
2022-09-23T00:02:01.936Z,9.1
2022-09-23T00:03:04.141Z,9.1
2022-09-23T00:04:01.193Z,9.1
2022-09-23T00:05:01.336Z,9.1
2022-09-23T00:06:03.530Z,9.1
2022-09-23T00:07:01.127Z,9.2
2022-09-23T00:08:01.084Z,9.2
2022-09-23T00:09:01.289Z,9.2
2022-09-23T00:10:02.500Z,9.2
2022-09-23T00:11:05.701Z,9.1
2022-09-23T00:12:03.714Z,9.1
2022-09-23T00:13:01.699Z,9.1
2022-09-23T00:14:01.940Z,9.1
2022-09-23T00:15:01.367Z,9.1
2022-09-23T00:16:09.289Z,9.1
2022-09-23T00:17:01.145Z,9.1
2022-09-23T00:18:01.869Z,9.1
2022-09-23T00:19:02.047Z,9.1
2022-09-23T00:20:02.100Z,9.1
2022-09-23T00:21:11.561Z,9.1
2022-09-23T00:22:01.762Z,9.1
2022-09-23T00:23:01.679Z,9.1
2022-09-23T00:24:01.866Z,9.1
2022-09-23T00:25:01.298Z,9.1
2022-09-23T00:26:15.105Z,9.1
2022-09-23T00:27:01.133Z,9.1
2022-09-23T00:28:01.130Z,9.1
2022-09-23T00:29:01.199Z,9.1
2022-09-23T00:30:01.376Z,9.1
2022-09-23T00:31:16.886Z,9
2022-09-23T00:32:01.147Z,9
2022-09-23T00:33:01.044Z,9
2022-09-23T00:34:01.331Z,9
2022-09-23T00:35:01.079Z,9
2022-09-23T00:36:01.052Z,9
2022-09-23T00:37:01.226Z,9
2022-09-23T00:38:01.030Z,9
2022-09-23T00:39:02.652Z,9
2022-09-23T00:40:01.206Z,9
2022-09-23T00:41:01.135Z,9
2022-09-23T00:42:01.865Z,9
2022-09-23T00:43:02.585Z,8.9
2022-09-23T00:44:02.045Z,8.8
2022-09-23T00:45:01.712Z,8.8
2022-09-23T00:46:01.895Z,8.8
2022-09-23T00:47:02.590Z,8.7
2022-09-23T00:48:01.047Z,8.6
2022-09-23T00:49:01.040Z,8.6
2022-09-23T00:50:01.049Z,8.6
2022-09-23T00:51:01.070Z,8.7
2022-09-23T00:52:01.070Z,8.7
2022-09-23T00:53:01.080Z,8.8
2022-09-23T00:54:01.553Z,8.8
2022-09-23T00:55:01.131Z,8.8
2022-09-23T00:56:01.242Z,8.7
2022-09-23T00:57:00.905Z,8.7
2022-09-23T00:58:00.615Z,8.7
2022-09-23T00:59:01.780Z,8.7
2022-09-23T01:00:01.180Z,8.8
2022-09-23T01:01:01.196Z,8.8
2022-09-23T01:02:01.190Z,8.8
2022-09-23T01:03:01.294Z,8.8
2022-09-23T01:04:01.044Z,8.8
2022-09-23T01:05:01.280Z,8.8
2022-09-23T01:06:01.938Z,8.8
2022-09-23T01:07:01.462Z,8.8
2022-09-23T01:08:01.079Z,8.7
2022-09-23T01:09:01.041Z,8.6
2022-09-23T01:10:01.083Z,8.6
2022-09-23T01:11:01.054Z,8.6
2022-09-23T01:12:01.100Z,8.6
2022-09-23T01:13:01.512Z,8.6
2022-09-23T01:14:01.118Z,8.6
2022-09-23T01:15:01.136Z,8.6
2022-09-23T01:16:01.557Z,8.6
2022-09-23T01:17:01.490Z,8.6
2022-09-23T01:18:01.517Z,8.6
2022-09-23T01:19:02.262Z,8.6
2022-09-23T01:20:02.182Z,8.6
2022-09-23T01:21:02.758Z,8.6
2022-09-23T01:22:01.724Z,8.6
2022-09-23T01:23:01.852Z,8.6
2022-09-23T01:24:01.779Z,8.6
2022-09-23T01:25:01.338Z,8.6
2022-09-23T01:26:01.407Z,8.5
2022-09-23T01:27:01.085Z,8.5
2022-09-23T01:28:01.105Z,8.5
2022-09-23T01:29:01.102Z,8.5
2022-09-23T01:29:59.979Z,8.6
2022-09-23T01:30:59.780Z,8.6
2022-09-23T01:32:01.422Z,8.6
2022-09-23T01:33:02.566Z,8.5
2022-09-23T01:34:00.908Z,8.5
2022-09-23T01:35:01.537Z,8.5
2022-09-23T01:36:01.260Z,8.4
2022-09-23T01:37:01.880Z,8.3
2022-09-23T01:38:01.073Z,8.3
2022-09-23T01:39:00.570Z,8.3
2022-09-23T01:40:00.462Z,8.3
2022-09-23T01:41:00.040Z,8.3
2022-09-23T01:42:00.933Z,8.3
2022-09-23T01:43:01.470Z,8.3
2022-09-23T01:44:01.225Z,8.3
2022-09-23T01:45:01.099Z,8.3
2022-09-23T01:46:01.151Z,8.3
2022-09-23T01:47:03.430Z,8.3
2022-09-23T01:48:01.204Z,8.3
2022-09-23T01:49:01.193Z,8.3
2022-09-23T01:50:01.165Z,8.3
2022-09-23T01:51:01.135Z,8.3
2022-09-23T01:52:05.450Z,8.3
2022-09-23T01:53:01.445Z,8.4
2022-09-23T01:54:01.065Z,8.3
2022-09-23T01:55:01.082Z,8.3
2022-09-23T01:56:01.080Z,8.3
2022-09-23T01:57:09.179Z,8.3
2022-09-23T01:58:01.755Z,8.3
2022-09-23T01:59:01.826Z,8.3
2022-09-23T02:00:01.780Z,8.3
2022-09-23T02:01:01.946Z,8.3
2022-09-23T02:02:11.305Z,8.3
2022-09-23T02:03:01.233Z,8.3
2022-09-23T02:04:01.153Z,8.3
2022-09-23T02:05:01.126Z,8.3
2022-09-23T02:06:01.135Z,8.3
2022-09-23T02:07:15.063Z,8.3
2022-09-23T02:08:01.051Z,8.2
2022-09-23T02:09:01.077Z,8.2
2022-09-23T02:10:01.126Z,8.2
2022-09-23T02:11:01.436Z,8.1
2022-09-23T02:12:16.984Z,8.1
2022-09-23T02:13:01.028Z,8.1
2022-09-23T02:14:01.097Z,8.1
2022-09-23T02:15:01.118Z,8.1
2022-09-23T02:16:01.107Z,8.1
2022-09-23T02:17:01.346Z,8
2022-09-23T02:18:01.123Z,8
2022-09-23T02:19:01.132Z,8
2022-09-23T02:20:01.561Z,8
2022-09-23T02:21:01.254Z,8.1
2022-09-23T02:22:01.263Z,8.1
2022-09-23T02:23:01.324Z,8.1
2022-09-23T02:24:01.861Z,8.1
2022-09-23T02:25:02.535Z,8
2022-09-23T02:26:01.063Z,8
2022-09-23T02:27:01.063Z,8.1
2022-09-23T02:28:01.580Z,8.1
2022-09-23T02:29:01.194Z,8.1
2022-09-23T02:30:01.107Z,8.1
2022-09-23T02:31:01.100Z,8.1
2022-09-23T02:32:01.071Z,8.1
2022-09-23T02:33:00.787Z,8.1
2022-09-23T02:34:00.317Z,8.1
2022-09-23T02:34:59.990Z,8
2022-09-23T02:35:59.692Z,8
2022-09-23T02:37:01.330Z,8
2022-09-23T02:38:08.090Z,8
2022-09-23T02:39:02.020Z,7.9
2022-09-23T02:40:01.056Z,7.9
2022-09-23T02:41:01.071Z,7.8
2022-09-23T02:42:01.074Z,7.8
2022-09-23T02:43:01.087Z,7.8
2022-09-23T02:44:01.090Z,7.8
2022-09-23T02:45:01.065Z,7.8
2022-09-23T02:46:01.158Z,7.8
2022-09-23T02:47:01.110Z,7.8
2022-09-23T02:48:01.519Z,7.8
2022-09-23T02:49:01.121Z,7.9
2022-09-23T02:50:01.127Z,7.9
2022-09-23T02:51:01.138Z,7.9
2022-09-23T02:52:01.527Z,8
2022-09-23T02:53:01.133Z,8
2022-09-23T02:54:01.149Z,8
2022-09-23T02:55:01.056Z,8
2022-09-23T02:56:01.028Z,8
2022-09-23T02:57:01.029Z,8
2022-09-23T02:58:01.422Z,8
2022-09-23T02:59:01.037Z,8
2022-09-23T03:00:01.096Z,8
2022-09-23T03:01:01.134Z,8
2022-09-23T03:02:01.158Z,8
2022-09-23T03:03:01.090Z,8
2022-09-23T03:04:01.152Z,8
2022-09-23T03:05:01.117Z,8
2022-09-23T03:06:01.116Z,8
2022-09-23T03:07:01.125Z,8
2022-09-23T03:08:01.041Z,8
2022-09-23T03:09:00.898Z,7.9
2022-09-23T03:10:00.740Z,7.8
2022-09-23T03:11:00.426Z,7.9
2022-09-23T03:12:00.136Z,7.9
2022-09-23T03:12:59.822Z,7.9
2022-09-23T03:14:01.673Z,7.8
2022-09-23T03:15:01.760Z,7.9
2022-09-23T03:16:01.770Z,7.8
2022-09-23T03:17:01.993Z,7.8
2022-09-23T03:18:01.418Z,7.8
2022-09-23T03:19:01.110Z,7.8
2022-09-23T03:20:01.790Z,7.8
2022-09-23T03:21:00.935Z,7.8
2022-09-23T03:22:01.139Z,7.8
2022-09-23T03:23:04.934Z,7.8
2022-09-23T03:24:00.827Z,7.8
2022-09-23T03:25:00.534Z,7.8
2022-09-23T03:26:00.118Z,7.8
2022-09-23T03:26:59.703Z,7.8
2022-09-23T03:28:08.197Z,7.7
2022-09-23T03:29:01.893Z,7.7
2022-09-23T03:30:01.771Z,7.8
2022-09-23T03:31:01.073Z,7.8
2022-09-23T03:32:01.213Z,7.8
2022-09-23T03:33:10.686Z,7.8
2022-09-23T03:34:01.307Z,7.8
2022-09-23T03:35:01.320Z,7.8
2022-09-23T03:36:01.319Z,7.8
2022-09-23T03:37:01.680Z,7.8
2022-09-23T03:38:12.653Z,7.8
2022-09-23T03:39:01.351Z,7.8
2022-09-23T03:40:02.480Z,7.8
2022-09-23T03:41:02.014Z,7.8
2022-09-23T03:42:01.729Z,7.8
2022-09-23T03:43:14.663Z,7.7
2022-09-23T03:44:01.355Z,7.7
2022-09-23T03:45:02.008Z,7.7
2022-09-23T03:46:01.153Z,7.6
2022-09-23T03:47:01.082Z,7.6
2022-09-23T03:48:16.584Z,7.6
2022-09-23T03:49:03.760Z,7.5
2022-09-23T03:50:01.776Z,7.5
2022-09-23T03:51:01.774Z,7.4
2022-09-23T03:52:02.440Z,7.4
2022-09-23T03:53:01.404Z,7.4
2022-09-23T03:54:02.072Z,7.3
2022-09-23T03:55:02.670Z,7.3
2022-09-23T03:56:01.559Z,7.3
2022-09-23T03:57:01.271Z,7.3
2022-09-23T03:58:01.071Z,7.3
2022-09-23T03:59:01.046Z,7.3
2022-09-23T04:00:01.067Z,7.3
2022-09-23T04:01:01.132Z,7.3
2022-09-23T04:02:01.131Z,7.3
2022-09-23T04:03:00.458Z,7.3
2022-09-23T04:04:00.048Z,7.2
2022-09-23T04:04:59.738Z,7.2
2022-09-23T04:06:02.103Z,7.2
2022-09-23T04:07:01.215Z,7.2
2022-09-23T04:08:01.116Z,7.2
2022-09-23T04:09:01.130Z,7.2
2022-09-23T04:10:01.145Z,7.3
2022-09-23T04:11:01.207Z,7.3
2022-09-23T04:12:01.145Z,7.3
2022-09-23T04:13:01.451Z,7.4
2022-09-23T04:14:01.053Z,7.4
2022-09-23T04:15:01.067Z,7.4
2022-09-23T04:16:01.096Z,7.4
2022-09-23T04:17:01.452Z,7.4
2022-09-23T04:18:02.069Z,7.3
2022-09-23T04:19:01.084Z,7.3
2022-09-23T04:20:00.788Z,7.3
2022-09-23T04:21:00.371Z,7.3
2022-09-23T04:21:59.955Z,7.2
2022-09-23T04:22:59.550Z,7.1
2022-09-23T04:24:01.693Z,7.1
2022-09-23T04:25:01.416Z,7.1
2022-09-23T04:26:02.040Z,7.1
2022-09-23T04:27:01.050Z,7.1
2022-09-23T04:28:01.130Z,7
2022-09-23T04:29:00.558Z,7
2022-09-23T04:30:00.236Z,7
2022-09-23T04:30:59.916Z,7
2022-09-23T04:31:59.642Z,7
2022-09-23T04:33:01.735Z,7
2022-09-23T04:34:01.198Z,7
2022-09-23T04:35:00.773Z,7.1
2022-09-23T04:36:00.366Z,7.1
2022-09-23T04:37:00.070Z,7.1
2022-09-23T04:37:59.754Z,7.1
2022-09-23T04:39:01.411Z,7
2022-09-23T04:40:01.104Z,7.1
2022-09-23T04:41:01.117Z,7.1
2022-09-23T04:42:01.123Z,7.1
2022-09-23T04:43:01.135Z,7.2
2022-09-23T04:44:01.022Z,7.2
2022-09-23T04:45:01.019Z,7.2
2022-09-23T04:46:01.063Z,7.2
2022-09-23T04:47:01.155Z,7.2
2022-09-23T04:48:01.062Z,7.1
2022-09-23T04:49:01.728Z,7.1
2022-09-23T04:50:01.080Z,7.1
2022-09-23T04:51:01.042Z,7.1
2022-09-23T04:52:00.496Z,7
2022-09-23T04:53:00.223Z,7
2022-09-23T04:53:59.806Z,7
2022-09-23T04:55:01.595Z,7
2022-09-23T04:56:01.218Z,7
2022-09-23T04:57:01.145Z,7.1
2022-09-23T04:58:01.137Z,7.1
2022-09-23T04:59:01.159Z,7.1
2022-09-23T05:00:01.135Z,7.1
2022-09-23T05:01:05.067Z,7.1
2022-09-23T05:02:01.109Z,7.1
2022-09-23T05:03:01.079Z,7.1
2022-09-23T05:04:01.520Z,7.2
2022-09-23T05:05:01.723Z,7.2
2022-09-23T05:06:01.833Z,7.3
2022-09-23T05:07:03.385Z,7.3
2022-09-23T05:08:01.432Z,7.3
2022-09-23T05:09:01.583Z,7.3
2022-09-23T05:10:01.168Z,7.3
2022-09-23T05:11:03.949Z,7.3
2022-09-23T05:12:01.045Z,7.3
2022-09-23T05:13:01.081Z,7.3
2022-09-23T05:14:01.538Z,7.3
2022-09-23T05:15:00.713Z,7.3
2022-09-23T05:16:00.414Z,7.5
2022-09-23T05:17:00.068Z,7.6
2022-09-23T05:17:59.697Z,7.8
2022-09-23T05:19:04.343Z,8
2022-09-23T05:20:01.331Z,8.3
2022-09-23T05:21:02.087Z,8.5
2022-09-23T05:22:01.071Z,8.8
2022-09-23T05:23:00.762Z,9
2022-09-23T05:24:04.746Z,9.2
2022-09-23T05:25:01.366Z,9.3
2022-09-23T05:26:01.690Z,9.3
2022-09-23T05:27:01.107Z,9.1
2022-09-23T05:28:01.106Z,9
2022-09-23T05:29:08.510Z,8.9
2022-09-23T05:30:01.415Z,8.8
2022-09-23T05:31:01.381Z,8.6
2022-09-23T05:32:02.163Z,8.5
2022-09-23T05:33:01.411Z,8.5
2022-09-23T05:34:11.156Z,8.4
2022-09-23T05:35:02.069Z,8.3
2022-09-23T05:36:01.184Z,8.3
2022-09-23T05:37:01.183Z,8.2
2022-09-23T05:38:01.083Z,8.1
2022-09-23T05:39:14.210Z,8.1
2022-09-23T05:40:00.772Z,8.1
2022-09-23T05:41:00.347Z,8
2022-09-23T05:42:00.079Z,8
2022-09-23T05:42:59.770Z,7.9
2022-09-23T05:44:16.836Z,7.8
2022-09-23T05:45:02.184Z,7.7
2022-09-23T05:46:04.828Z,7.6
2022-09-23T05:47:01.254Z,7.6
2022-09-23T05:48:01.176Z,7.6
2022-09-23T05:49:03.279Z,7.6
2022-09-23T05:50:01.502Z,7.6
2022-09-23T05:51:01.152Z,7.7
2022-09-23T05:52:01.472Z,7.7
2022-09-23T05:53:01.466Z,7.8
2022-09-23T05:54:01.227Z,7.8
2022-09-23T05:55:01.882Z,7.8
2022-09-23T05:56:01.135Z,7.8
2022-09-23T05:57:04.270Z,7.8
2022-09-23T05:58:01.408Z,7.9
2022-09-23T05:59:01.135Z,7.9
2022-09-23T06:00:01.216Z,8
2022-09-23T06:01:01.509Z,8
2022-09-23T06:02:01.355Z,8
2022-09-23T06:03:01.251Z,8
2022-09-23T06:04:01.171Z,8
2022-09-23T06:05:00.769Z,8
2022-09-23T06:06:00.349Z,8.1
2022-09-23T06:07:03.229Z,8.1
2022-09-23T06:08:01.973Z,8.1
2022-09-23T06:09:01.365Z,8.1
2022-09-23T06:10:00.912Z,8.2
2022-09-23T06:11:01.027Z,8.2
2022-09-23T06:12:01.089Z,8.3
2022-09-23T06:13:01.152Z,8.3
2022-09-23T06:14:01.377Z,8.3
2022-09-23T06:15:01.114Z,8.3
2022-09-23T06:16:01.232Z,8.3
2022-09-23T06:17:01.116Z,8.4
2022-09-23T06:18:01.121Z,8.4
2022-09-23T06:19:05.278Z,8.4
2022-09-23T06:20:01.365Z,8.5
2022-09-23T06:21:01.045Z,8.5
2022-09-23T06:22:01.052Z,8.5
2022-09-23T06:23:01.191Z,8.5
2022-09-23T06:24:01.069Z,8.5
2022-09-23T06:25:01.087Z,8.6
2022-09-23T06:26:01.078Z,8.6
2022-09-23T06:27:01.161Z,8.6
2022-09-23T06:28:01.098Z,8.6
2022-09-23T06:29:01.137Z,8.6
2022-09-23T06:30:01.219Z,8.7
2022-09-23T06:31:01.223Z,8.7
2022-09-23T06:32:01.194Z,8.8
2022-09-23T06:33:01.129Z,8.8
2022-09-23T06:34:12.446Z,8.8
2022-09-23T06:35:01.133Z,8.9
2022-09-23T06:36:01.140Z,8.9
2022-09-23T06:37:10.658Z,8.9
2022-09-23T06:38:01.727Z,8.9
2022-09-23T06:39:02.018Z,8.9
2022-09-23T06:40:01.687Z,8.9
2022-09-23T06:41:01.076Z,9
2022-09-23T06:42:01.090Z,9
2022-09-23T06:43:01.096Z,9
2022-09-23T06:44:01.512Z,9
2022-09-23T06:45:01.044Z,9
2022-09-23T06:46:01.148Z,9
2022-09-23T06:47:01.065Z,9.1
2022-09-23T06:48:01.413Z,9.1
2022-09-23T06:49:01.539Z,9.1
2022-09-23T06:50:01.271Z,9.1
2022-09-23T06:51:01.933Z,9.1
2022-09-23T06:52:01.067Z,9.2
2022-09-23T06:53:01.057Z,9.2
2022-09-23T06:54:01.082Z,9.3
2022-09-23T06:55:01.381Z,9.3
2022-09-23T06:56:01.090Z,9.3
2022-09-23T06:57:01.232Z,9.4
2022-09-23T06:58:01.087Z,9.4
2022-09-23T06:59:01.149Z,9.5
2022-09-23T07:00:01.105Z,9.5
2022-09-23T07:01:00.903Z,9.5
2022-09-23T07:02:01.314Z,9.5
2022-09-23T07:03:02.604Z,9.5
2022-09-23T07:04:01.191Z,9.5
2022-09-23T07:05:01.198Z,9.6
2022-09-23T07:06:01.130Z,9.6
2022-09-23T07:07:01.148Z,9.6
2022-09-23T07:08:01.039Z,9.6
2022-09-23T07:09:01.187Z,9.7
2022-09-23T07:10:05.781Z,9.7
2022-09-23T07:11:01.878Z,9.8
2022-09-23T07:12:01.076Z,9.8
2022-09-23T07:13:01.074Z,9.8
2022-09-23T07:14:01.095Z,9.8
2022-09-23T07:15:09.631Z,9.9
2022-09-23T07:16:01.158Z,9.9
2022-09-23T07:17:01.188Z,9.9
2022-09-23T07:18:01.223Z,9.9
2022-09-23T07:19:01.637Z,10
2022-09-23T07:20:12.657Z,10
2022-09-23T07:21:01.335Z,10
2022-09-23T07:22:01.135Z,10
2022-09-23T07:23:01.148Z,10.1
2022-09-23T07:24:01.054Z,10.1
2022-09-23T07:25:15.976Z,10.1
2022-09-23T07:26:01.436Z,10.1
2022-09-23T07:27:01.055Z,10.2
2022-09-23T07:28:01.068Z,10.2
2022-09-23T07:29:01.075Z,10.3
2022-09-23T07:30:01.046Z,10.3
2022-09-23T07:31:01.351Z,10.3
2022-09-23T07:32:12.464Z,10.4
2022-09-23T07:33:01.502Z,10.5
2022-09-23T07:34:02.303Z,10.5
2022-09-23T07:35:01.183Z,10.5
2022-09-23T07:36:00.839Z,10.6
2022-09-23T07:37:00.517Z,10.6
2022-09-23T07:38:00.177Z,10.6
2022-09-23T07:38:59.826Z,10.6
2022-09-23T07:40:01.467Z,10.7
2022-09-23T07:41:01.162Z,10.7
2022-09-23T07:42:01.199Z,10.8
2022-09-23T07:43:01.339Z,10.8
2022-09-23T07:44:01.790Z,10.8
2022-09-23T07:45:01.996Z,10.8
2022-09-23T07:46:01.109Z,10.9
2022-09-23T07:47:01.082Z,10.9
2022-09-23T07:48:01.095Z,10.9
2022-09-23T07:49:01.264Z,11
2022-09-23T07:50:01.182Z,11
2022-09-23T07:51:02.121Z,10.9
2022-09-23T07:52:01.214Z,10.9
2022-09-23T07:53:01.041Z,11
2022-09-23T07:54:01.544Z,11
2022-09-23T07:55:01.145Z,11
2022-09-23T07:56:01.039Z,11
2022-09-23T07:57:01.059Z,11
2022-09-23T07:58:01.075Z,11.1
2022-09-23T07:59:01.172Z,11.1
2022-09-23T08:00:01.089Z,11.2
2022-09-23T08:01:00.897Z,11.3
2022-09-23T08:02:01.367Z,11.3
2022-09-23T08:03:01.362Z,11.3
2022-09-23T08:04:01.123Z,11.4
2022-09-23T08:05:01.107Z,11.4
2022-09-23T08:06:01.209Z,11.3
2022-09-23T08:07:01.120Z,11.3
2022-09-23T08:08:01.131Z,11.3
2022-09-23T08:09:01.194Z,11.4
2022-09-23T08:10:01.132Z,11.5
2022-09-23T08:11:01.957Z,11.5
2022-09-23T08:12:01.059Z,11.5
2022-09-23T08:13:01.666Z,11.5
2022-09-23T08:14:01.865Z,11.6
2022-09-23T08:15:01.749Z,11.6
2022-09-23T08:16:02.038Z,11.6
2022-09-23T08:17:01.819Z,11.8
2022-09-23T08:18:02.110Z,11.8
2022-09-23T08:19:01.719Z,11.8
2022-09-23T08:20:01.237Z,11.9
2022-09-23T08:21:00.612Z,12
2022-09-23T08:22:00.210Z,12.1
2022-09-23T08:22:59.782Z,12.1
2022-09-23T08:24:01.793Z,12.1
2022-09-23T08:25:01.430Z,12.1
2022-09-23T08:26:01.396Z,12.1
2022-09-23T08:27:02.473Z,12.1
2022-09-23T08:28:02.058Z,12.1
2022-09-23T08:29:01.046Z,12.1
2022-09-23T08:30:01.057Z,12.2
2022-09-23T08:31:01.166Z,12.3
2022-09-23T08:32:01.411Z,12.3
2022-09-23T08:33:02.022Z,12.3
2022-09-23T08:34:01.103Z,12.4
2022-09-23T08:35:01.058Z,12.5
2022-09-23T08:36:01.100Z,12.5
2022-09-23T08:37:01.120Z,12.5
2022-09-23T08:38:01.118Z,12.5
2022-09-23T08:39:01.141Z,12.5
2022-09-23T08:40:01.126Z,12.5
2022-09-23T08:41:00.858Z,12.5
2022-09-23T08:42:00.429Z,12.5
2022-09-23T08:43:00.008Z,12.5
2022-09-23T08:43:59.709Z,12.5
2022-09-23T08:45:01.362Z,12.5
2022-09-23T08:46:04.521Z,12.5
2022-09-23T08:47:01.072Z,12.5
2022-09-23T08:48:01.085Z,12.5
2022-09-23T08:49:01.290Z,12.4
2022-09-23T08:50:01.477Z,12.5
2022-09-23T08:51:07.618Z,12.5
2022-09-23T08:52:01.261Z,12.5
2022-09-23T08:53:01.921Z,12.5
2022-09-23T08:54:01.139Z,12.4
2022-09-23T08:55:01.029Z,12.4
2022-09-23T08:56:10.199Z,12.4
2022-09-23T08:57:01.418Z,12.4
2022-09-23T08:58:24.013Z,12.4
2022-09-23T08:59:02.110Z,12.4
2022-09-23T09:00:01.906Z,12.4
2022-09-23T09:01:14.364Z,12.4
2022-09-23T09:02:01.093Z,12.4
2022-09-23T09:03:01.070Z,12.5
2022-09-23T09:04:01.330Z,12.6
2022-09-23T09:05:01.320Z,12.6
2022-09-23T09:06:16.849Z,12.6
2022-09-23T09:07:24.473Z,12.6
2022-09-23T09:08:02.220Z,12.6
2022-09-23T09:09:01.106Z,12.6
2022-09-23T09:10:01.155Z,12.6
2022-09-23T09:11:01.134Z,12.6
2022-09-23T09:12:01.253Z,12.6
2022-09-23T09:13:01.142Z,12.6
2022-09-23T09:14:01.176Z,12.6
2022-09-23T09:15:01.421Z,12.6
2022-09-23T09:16:01.485Z,12.7
2022-09-23T09:17:01.692Z,12.8
2022-09-23T09:18:01.078Z,12.8
2022-09-23T09:19:01.052Z,12.9
2022-09-23T09:20:01.073Z,12.9
2022-09-23T09:21:00.906Z,13
2022-09-23T09:22:01.110Z,13
2022-09-23T09:23:01.120Z,13
2022-09-23T09:24:03.778Z,13.1
2022-09-23T09:25:01.107Z,13.1
2022-09-23T09:26:01.120Z,13.1
2022-09-23T09:27:00.816Z,13.1
2022-09-23T09:28:00.512Z,13.1
2022-09-23T09:29:16.855Z,13.2
2022-09-23T09:30:01.192Z,13.3
2022-09-23T09:31:01.102Z,13.3
2022-09-23T09:32:01.057Z,13.3
2022-09-23T09:33:01.113Z,13.3
2022-09-23T09:34:01.387Z,13.3
2022-09-23T09:35:01.417Z,13.3
2022-09-23T09:36:02.110Z,13.3
2022-09-23T09:37:06.160Z,13.3
2022-09-23T09:38:04.594Z,13.3
2022-09-23T09:39:01.102Z,13.3
2022-09-23T09:40:01.103Z,13.3
2022-09-23T09:41:00.762Z,13.3
2022-09-23T09:42:00.485Z,13.3
2022-09-23T09:43:00.344Z,13.3
2022-09-23T09:44:00.075Z,13.3
2022-09-23T09:44:59.798Z,13.3
2022-09-23T09:46:01.686Z,13.4
2022-09-23T09:47:00.914Z,13.4
2022-09-23T09:48:00.644Z,13.4
2022-09-23T09:49:00.428Z,13.4
2022-09-23T09:50:00.251Z,13.5
2022-09-23T09:50:59.944Z,13.5
2022-09-23T09:51:59.738Z,13.5
2022-09-23T09:53:02.102Z,13.5
2022-09-23T09:54:02.384Z,13.5
2022-09-23T09:55:01.047Z,13.5
2022-09-23T09:56:05.082Z,13.6
2022-09-23T09:57:01.363Z,13.6
2022-09-23T09:58:02.482Z,13.7
2022-09-23T09:59:02.106Z,13.8
2022-09-23T10:00:01.171Z,13.8
2022-09-23T10:01:01.096Z,13.9
2022-09-23T10:02:03.961Z,13.9
2022-09-23T10:03:00.995Z,13.9
2022-09-23T10:04:01.030Z,13.9
2022-09-23T10:05:01.020Z,14
2022-09-23T10:06:01.015Z,13.9
2022-09-23T10:07:00.974Z,13.9
2022-09-23T10:08:01.073Z,14
2022-09-23T10:09:01.030Z,14
2022-09-23T10:10:21.827Z,14
2022-09-23T10:11:01.218Z,14
2022-09-23T10:12:01.066Z,14
2022-09-23T10:13:01.992Z,14.1
2022-09-23T10:14:02.620Z,14.2
2022-09-23T10:15:00.987Z,14.3
2022-09-23T10:16:01.082Z,14.5
2022-09-23T10:17:01.101Z,14.5
2022-09-23T10:18:01.211Z,14.5
2022-09-23T10:19:02.651Z,14.5
2022-09-23T10:20:02.060Z,14.6
2022-09-23T10:21:01.515Z,14.5
2022-09-23T10:22:01.718Z,14.5
2022-09-23T10:23:01.206Z,14.5
2022-09-23T10:24:01.033Z,14.5
2022-09-23T10:25:01.041Z,14.5
2022-09-23T10:26:01.044Z,14.5
2022-09-23T10:27:01.041Z,14.5
2022-09-23T10:28:06.012Z,14.5
2022-09-23T10:29:01.189Z,14.5
2022-09-23T10:30:01.062Z,14.5
2022-09-23T10:31:01.264Z,14.5
2022-09-23T10:32:03.441Z,14.6
2022-09-23T10:33:02.107Z,14.5
2022-09-23T10:34:01.917Z,14.6
2022-09-23T10:35:01.107Z,14.6
2022-09-23T10:36:01.009Z,14.6
2022-09-23T10:37:06.086Z,14.7
2022-09-23T10:38:01.724Z,14.7
2022-09-23T10:39:01.054Z,14.7
2022-09-23T10:40:01.495Z,14.7
2022-09-23T10:41:01.034Z,14.8
2022-09-23T10:42:09.538Z,14.8
2022-09-23T10:43:01.900Z,14.7
2022-09-23T10:44:01.369Z,14.8
2022-09-23T10:45:01.082Z,14.7
2022-09-23T10:46:01.138Z,14.7
2022-09-23T10:47:11.538Z,14.8
2022-09-23T10:48:01.213Z,14.8
2022-09-23T10:49:01.185Z,14.8
2022-09-23T10:50:02.512Z,14.8
2022-09-23T10:51:01.007Z,14.8
2022-09-23T10:52:14.030Z,14.8
2022-09-23T10:53:01.003Z,14.8
2022-09-23T10:54:01.050Z,14.8
2022-09-23T10:55:01.048Z,14.9
2022-09-23T10:56:01.078Z,14.9
2022-09-23T10:57:15.981Z,14.9
2022-09-23T10:58:02.122Z,15
2022-09-23T10:59:01.351Z,15
2022-09-23T11:00:01.073Z,15
2022-09-23T11:01:01.958Z,15.1
2022-09-23T11:02:01.191Z,15.1
2022-09-23T11:03:01.388Z,15.1
2022-09-23T11:04:01.353Z,15.1
2022-09-23T11:05:03.068Z,15.1
2022-09-23T11:06:00.076Z,15.1
2022-09-23T11:06:59.666Z,15.2
2022-09-23T11:08:01.417Z,15.2
2022-09-23T11:09:01.411Z,15.2
2022-09-23T11:10:01.038Z,15.3
2022-09-23T11:11:01.083Z,15.3
2022-09-23T11:12:01.056Z,15.3
2022-09-23T11:13:01.092Z,15.3
2022-09-23T11:14:01.073Z,15.3
2022-09-23T11:15:01.080Z,15.3
2022-09-23T11:16:01.795Z,15.4
2022-09-23T11:17:01.494Z,15.4
2022-09-23T11:18:02.083Z,15.3
2022-09-23T11:19:01.136Z,15.4
2022-09-23T11:20:01.093Z,15.5
2022-09-23T11:21:01.118Z,15.5
2022-09-23T11:22:00.820Z,15.5
2022-09-23T11:23:01.151Z,15.5
2022-09-23T11:24:01.076Z,15.6
2022-09-23T11:25:01.853Z,15.5
2022-09-23T11:26:01.727Z,15.6
2022-09-23T11:27:01.942Z,15.6
2022-09-23T11:28:01.352Z,15.6
2022-09-23T11:29:01.657Z,15.6
2022-09-23T11:30:01.290Z,15.6
2022-09-23T11:31:01.564Z,15.6
2022-09-23T11:32:01.138Z,15.6
2022-09-23T11:34:01.106Z,15.6
2022-09-23T11:35:01.114Z,15.6
2022-09-23T11:36:01.125Z,15.7
2022-09-23T11:37:01.010Z,15.7
2022-09-23T11:38:01.094Z,15.8
2022-09-23T11:39:01.019Z,15.8
2022-09-23T11:40:01.023Z,15.9
2022-09-23T11:41:01.142Z,15.9
2022-09-23T11:42:00.831Z,15.9
2022-09-23T11:43:00.448Z,16
2022-09-23T11:44:00.132Z,16
2022-09-23T11:45:00.044Z,16
2022-09-23T11:45:59.732Z,16
2022-09-23T11:47:01.394Z,16
2022-09-23T11:48:02.531Z,16
2022-09-23T11:49:01.008Z,16
2022-09-23T11:50:01.112Z,16
2022-09-23T11:51:01.111Z,16.1
2022-09-23T11:52:01.197Z,16.1
2022-09-23T11:53:01.141Z,16.1
2022-09-23T11:54:01.847Z,16.1
2022-09-23T11:55:03.602Z,16.1
2022-09-23T11:56:02.738Z,16.1
2022-09-23T11:57:01.712Z,16.1
2022-09-23T11:58:01.825Z,16.1
2022-09-23T11:59:01.501Z,16.1
2022-09-23T12:00:01.120Z,16
2022-09-23T12:01:01.665Z,16
2022-09-23T12:02:09.630Z,16
2022-09-23T12:03:06.010Z,16
2022-09-23T12:04:11.711Z,16
2022-09-23T12:05:03.334Z,16
2022-09-23T12:06:01.242Z,16
2022-09-23T12:07:01.108Z,16
2022-09-23T12:08:01.190Z,16
2022-09-23T12:09:01.419Z,16
2022-09-23T12:10:01.139Z,16
2022-09-23T12:11:01.015Z,16
2022-09-23T12:12:01.073Z,16.1
2022-09-23T12:13:01.079Z,16.1
2022-09-23T12:14:04.502Z,16.1
2022-09-23T12:15:01.061Z,16.1
2022-09-23T12:16:01.063Z,16.2
2022-09-23T12:17:01.133Z,16.2
2022-09-23T12:18:01.071Z,16.2
2022-09-23T12:19:01.475Z,16.3
2022-09-23T12:20:01.082Z,16.3
2022-09-23T12:21:01.016Z,16.3
2022-09-23T12:22:01.318Z,16.3
2022-09-23T12:23:03.886Z,16.3
2022-09-23T12:24:03.303Z,16.3
2022-09-23T12:25:01.148Z,16.3
2022-09-23T12:26:01.035Z,16.4
2022-09-23T12:27:01.304Z,16.3
2022-09-23T12:28:05.610Z,16.3
2022-09-23T12:29:01.237Z,16.3
2022-09-23T12:30:01.442Z,16.3
2022-09-23T12:31:02.133Z,16.3
2022-09-23T12:32:01.548Z,16.3
2022-09-23T12:33:08.170Z,16.3
2022-09-23T12:34:01.581Z,16.3
2022-09-23T12:35:01.086Z,16.3
2022-09-23T12:36:01.100Z,16.3
2022-09-23T12:37:01.236Z,16.3
2022-09-23T12:38:11.242Z,16.3
2022-09-23T12:39:01.509Z,16.3
2022-09-23T12:40:04.355Z,16.3
2022-09-23T12:41:01.816Z,16.4
2022-09-23T12:42:02.290Z,16.3
2022-09-23T12:43:13.940Z,16.4
2022-09-23T12:44:01.245Z,16.4
2022-09-23T12:45:01.057Z,16.4
2022-09-23T12:46:01.087Z,16.4
2022-09-23T12:47:01.441Z,16.4
2022-09-23T12:48:16.736Z,16.4
2022-09-23T12:49:02.234Z,16.3
2022-09-23T12:50:01.027Z,16.3
2022-09-23T12:51:01.019Z,16.3
2022-09-23T12:52:01.304Z,16.3
2022-09-23T12:53:01.104Z,16.3
2022-09-23T12:54:01.207Z,16.3
2022-09-23T12:55:01.126Z,16.3
2022-09-23T12:56:01.095Z,16.3
2022-09-23T12:57:01.022Z,16.3
2022-09-23T12:58:01.430Z,16.3
2022-09-23T12:59:01.053Z,16.3
2022-09-23T13:00:01.054Z,16.3
2022-09-23T13:01:01.174Z,16.3
2022-09-23T13:02:01.180Z,16.3
2022-09-23T13:03:01.077Z,16.3
2022-09-23T13:04:01.106Z,16.3
2022-09-23T13:05:01.456Z,16.3
2022-09-23T13:06:02.552Z,16.3
2022-09-23T13:07:01.199Z,16.3
2022-09-23T13:08:01.110Z,16.4
2022-09-23T13:09:01.014Z,16.4
2022-09-23T13:10:01.128Z,16.4
2022-09-23T13:11:01.129Z,16.5
2022-09-23T13:12:01.042Z,16.5
2022-09-23T13:13:01.418Z,16.5
2022-09-23T13:14:01.063Z,16.5
2022-09-23T13:15:01.344Z,16.5
2022-09-23T13:16:01.106Z,16.5
2022-09-23T13:17:01.150Z,16.5
2022-09-23T13:18:01.076Z,16.5
2022-09-23T13:19:01.094Z,16.5
2022-09-23T13:20:01.102Z,16.5
2022-09-23T13:21:01.124Z,16.6
2022-09-23T13:22:01.096Z,16.6
2022-09-23T13:23:01.362Z,16.6
2022-09-23T13:24:01.214Z,16.6
2022-09-23T13:25:01.922Z,16.7
2022-09-23T13:26:02.724Z,16.7
2022-09-23T13:27:01.178Z,16.7
2022-09-23T13:28:01.027Z,16.8
2022-09-23T13:29:01.019Z,16.8
2022-09-23T13:30:01.443Z,16.8
2022-09-23T13:31:01.192Z,16.8
2022-09-23T13:32:01.366Z,16.9
2022-09-23T13:33:01.054Z,16.9
2022-09-23T13:34:01.097Z,16.9
2022-09-23T13:35:01.093Z,17
2022-09-23T13:36:01.093Z,17
2022-09-23T13:37:01.093Z,17
2022-09-23T13:38:01.122Z,17
2022-09-23T13:39:01.297Z,17
2022-09-23T13:40:01.102Z,17.1
2022-09-23T13:41:01.114Z,17.1